sensor_id;sensor_type;location;lat;lon;timestamp;P1;durP1;ratioP1;P2;durP2;ratioP2
40198;SDS011;25906;43.536;26.068;2023-04-03T00:01:17;3.90;;;2.20;;
40198;SDS011;25906;43.536;26.068;2023-04-03T00:04:03;4.25;;;2.05;;
40198;SDS011;25906;43.536;26.068;2023-04-03T00:06:49;2.13;;;1.58;;
40198;SDS011;25906;43.536;26.068;2023-04-03T00:09:35;2.67;;;1.67;;
40198;SDS011;25906;43.536;26.068;2023-04-03T00:12:20;5.75;;;2.67;;
40198;SDS011;25906;43.536;26.068;2023-04-03T00:15:06;5.55;;;2.40;;
40198;SDS011;25906;43.536;26.068;2023-04-03T00:17:51;5.35;;;2.35;;
40198;SDS011;25906;43.536;26.068;2023-04-03T00:20:37;4.13;;;2.65;;
40198;SDS011;25906;43.536;26.068;2023-04-03T00:23:22;7.00;;;3.13;;
40198;SDS011;25906;43.536;26.068;2023-04-03T00:28:53;3.05;;;1.85;;
40198;SDS011;25906;43.536;26.068;2023-04-03T00:31:39;2.63;;;1.92;;
40198;SDS011;25906;43.536;26.068;2023-04-03T00:34:25;3.80;;;1.80;;
40198;SDS011;25906;43.536;26.068;2023-04-03T00:37:10;4.80;;;2.30;;
40198;SDS011;25906;43.536;26.068;2023-04-03T00:39:56;2.88;;;2.25;;
40198;SDS011;25906;43.536;26.068;2023-04-03T00:42:42;3.17;;;2.00;;
40198;SDS011;25906;43.536;26.068;2023-04-03T00:45:31;4.45;;;2.40;;
40198;SDS011;25906;43.536;26.068;2023-04-03T00:48:20;3.38;;;2.00;;
40198;SDS011;25906;43.536;26.068;2023-04-03T00:51:10;3.67;;;2.10;;
40198;SDS011;25906;43.536;26.068;2023-04-03T00:54:01;2.35;;;2.13;;
40198;SDS011;25906;43.536;26.068;2023-04-03T00:56:51;3.10;;;1.80;;
40198;SDS011;25906;43.536;26.068;2023-04-03T00:59:39;5.30;;;1.90;;
40198;SDS011;25906;43.536;26.068;2023-04-03T01:02:29;5.22;;;1.85;;
40198;SDS011;25906;43.536;26.068;2023-04-03T01:05:15;1.58;;;1.45;;
40198;SDS011;25906;43.536;26.068;2023-04-03T01:08:02;2.47;;;1.48;;
40198;SDS011;25906;43.536;26.068;2023-04-03T01:10:48;3.72;;;1.42;;
40198;SDS011;25906;43.536;26.068;2023-04-03T01:13:34;1.90;;;1.40;;
40198;SDS011;25906;43.536;26.068;2023-04-03T01:16:19;2.28;;;1.55;;
40198;SDS011;25906;43.536;26.068;2023-04-03T01:19:06;1.58;;;1.42;;
40198;SDS011;25906;43.536;26.068;2023-04-03T01:22:10;2.67;;;1.48;;
40198;SDS011;25906;43.536;26.068;2023-04-03T01:25:04;3.30;;;1.50;;
40198;SDS011;25906;43.536;26.068;2023-04-03T01:27:50;1.73;;;1.48;;
40198;SDS011;25906;43.536;26.068;2023-04-03T01:33:37;2.72;;;1.52;;
40198;SDS011;25906;43.536;26.068;2023-04-03T01:36:27;1.60;;;1.40;;
40198;SDS011;25906;43.536;26.068;2023-04-03T01:39:15;2.08;;;1.50;;
40198;SDS011;25906;43.536;26.068;2023-04-03T01:42:00;1.73;;;1.50;;
40198;SDS011;25906;43.536;26.068;2023-04-03T01:44:46;1.60;;;1.40;;
40198;SDS011;25906;43.536;26.068;2023-04-03T01:47:31;1.60;;;1.50;;
40198;SDS011;25906;43.536;26.068;2023-04-03T01:50:17;1.88;;;1.65;;
40198;SDS011;25906;43.536;26.068;2023-04-03T01:53:02;2.40;;;1.63;;
40198;SDS011;25906;43.536;26.068;2023-04-03T01:55:48;2.75;;;2.00;;
40198;SDS011;25906;43.536;26.068;2023-04-03T01:58:33;1.70;;;1.60;;
40198;SDS011;25906;43.536;26.068;2023-04-03T02:01:19;1.77;;;1.58;;
40198;SDS011;25906;43.536;26.068;2023-04-03T02:04:04;1.42;;;1.27;;
40198;SDS011;25906;43.536;26.068;2023-04-03T02:06:50;3.65;;;1.95;;
40198;SDS011;25906;43.536;26.068;2023-04-03T02:09:35;1.50;;;1.40;;
40198;SDS011;25906;43.536;26.068;2023-04-03T02:12:21;3.42;;;1.65;;
40198;SDS011;25906;43.536;26.068;2023-04-03T02:15:06;2.67;;;1.77;;
40198;SDS011;25906;43.536;26.068;2023-04-03T02:17:52;2.85;;;1.85;;
40198;SDS011;25906;43.536;26.068;2023-04-03T02:20:37;2.85;;;1.65;;
40198;SDS011;25906;43.536;26.068;2023-04-03T02:23:23;3.17;;;1.60;;
40198;SDS011;25906;43.536;26.068;2023-04-03T02:26:09;1.75;;;1.40;;
40198;SDS011;25906;43.536;26.068;2023-04-03T02:28:56;2.30;;;1.60;;
40198;SDS011;25906;43.536;26.068;2023-04-03T02:31:42;3.20;;;1.80;;
40198;SDS011;25906;43.536;26.068;2023-04-03T02:34:27;2.05;;;1.52;;
40198;SDS011;25906;43.536;26.068;2023-04-03T02:37:13;1.92;;;1.58;;
40198;SDS011;25906;43.536;26.068;2023-04-03T02:39:58;2.72;;;1.70;;
40198;SDS011;25906;43.536;26.068;2023-04-03T02:42:44;2.05;;;1.73;;
40198;SDS011;25906;43.536;26.068;2023-04-03T02:45:30;2.40;;;1.98;;
40198;SDS011;25906;43.536;26.068;2023-04-03T02:48:15;5.32;;;1.58;;
40198;SDS011;25906;43.536;26.068;2023-04-03T02:51:01;2.63;;;2.00;;
40198;SDS011;25906;43.536;26.068;2023-04-03T02:53:47;2.38;;;1.92;;
40198;SDS011;25906;43.536;26.068;2023-04-03T02:56:32;4.63;;;2.25;;
40198;SDS011;25906;43.536;26.068;2023-04-03T02:59:18;3.45;;;2.00;;
40198;SDS011;25906;43.536;26.068;2023-04-03T03:02:03;1.88;;;1.73;;
40198;SDS011;25906;43.536;26.068;2023-04-03T03:04:49;2.58;;;1.92;;
40198;SDS011;25906;43.536;26.068;2023-04-03T03:07:34;3.58;;;2.38;;
40198;SDS011;25906;43.536;26.068;2023-04-03T03:10:19;9.85;;;4.97;;
40198;SDS011;25906;43.536;26.068;2023-04-03T03:13:05;12.18;;;6.28;;
40198;SDS011;25906;43.536;26.068;2023-04-03T03:15:50;9.85;;;6.78;;
40198;SDS011;25906;43.536;26.068;2023-04-03T03:18:36;6.78;;;4.40;;
40198;SDS011;25906;43.536;26.068;2023-04-03T03:21:21;7.57;;;3.72;;
40198;SDS011;25906;43.536;26.068;2023-04-03T03:24:07;6.53;;;2.97;;
40198;SDS011;25906;43.536;26.068;2023-04-03T03:26:52;2.97;;;2.20;;
40198;SDS011;25906;43.536;26.068;2023-04-03T03:29:38;2.60;;;1.92;;
40198;SDS011;25906;43.536;26.068;2023-04-03T03:32:23;2.83;;;2.13;;
40198;SDS011;25906;43.536;26.068;2023-04-03T03:35:08;4.18;;;2.90;;
40198;SDS011;25906;43.536;26.068;2023-04-03T03:37:54;6.80;;;3.80;;
40198;SDS011;25906;43.536;26.068;2023-04-03T03:40:39;3.88;;;2.55;;
40198;SDS011;25906;43.536;26.068;2023-04-03T03:43:25;5.00;;;3.35;;
40198;SDS011;25906;43.536;26.068;2023-04-03T03:46:10;8.15;;;3.58;;
40198;SDS011;25906;43.536;26.068;2023-04-03T03:48:56;6.63;;;4.22;;
40198;SDS011;25906;43.536;26.068;2023-04-03T03:51:41;7.93;;;4.40;;
40198;SDS011;25906;43.536;26.068;2023-04-03T03:54:27;5.63;;;3.28;;
40198;SDS011;25906;43.536;26.068;2023-04-03T03:57:12;10.25;;;6.30;;
40198;SDS011;25906;43.536;26.068;2023-04-03T03:59:57;12.02;;;5.80;;
40198;SDS011;25906;43.536;26.068;2023-04-03T04:02:43;8.60;;;5.00;;
40198;SDS011;25906;43.536;26.068;2023-04-03T04:05:28;6.65;;;4.50;;
40198;SDS011;25906;43.536;26.068;2023-04-03T04:08:14;5.43;;;3.53;;
40198;SDS011;25906;43.536;26.068;2023-04-03T04:10:59;3.45;;;2.75;;
40198;SDS011;25906;43.536;26.068;2023-04-03T04:13:45;2.72;;;2.22;;
40198;SDS011;25906;43.536;26.068;2023-04-03T04:19:16;6.40;;;3.60;;
40198;SDS011;25906;43.536;26.068;2023-04-03T04:22:01;5.50;;;2.20;;
40198;SDS011;25906;43.536;26.068;2023-04-03T04:24:47;5.00;;;2.88;;
40198;SDS011;25906;43.536;26.068;2023-04-03T04:27:32;2.58;;;1.90;;
40198;SDS011;25906;43.536;26.068;2023-04-03T04:30:18;6.32;;;2.80;;
40198;SDS011;25906;43.536;26.068;2023-04-03T04:33:03;3.97;;;2.40;;
40198;SDS011;25906;43.536;26.068;2023-04-03T04:35:49;3.83;;;2.30;;
40198;SDS011;25906;43.536;26.068;2023-04-03T04:41:20;3.75;;;2.22;;
40198;SDS011;25906;43.536;26.068;2023-04-03T04:44:09;3.30;;;2.40;;
40198;SDS011;25906;43.536;26.068;2023-04-03T04:46:55;2.83;;;2.10;;
40198;SDS011;25906;43.536;26.068;2023-04-03T04:49:40;5.47;;;2.28;;
40198;SDS011;25906;43.536;26.068;2023-04-03T04:52:26;2.67;;;2.00;;
40198;SDS011;25906;43.536;26.068;2023-04-03T04:55:11;2.53;;;2.15;;
40198;SDS011;25906;43.536;26.068;2023-04-03T04:57:56;8.80;;;3.38;;
40198;SDS011;25906;43.536;26.068;2023-04-03T05:00:42;6.65;;;3.40;;
40198;SDS011;25906;43.536;26.068;2023-04-03T05:03:27;6.57;;;3.65;;
40198;SDS011;25906;43.536;26.068;2023-04-03T05:06:13;7.65;;;4.50;;
40198;SDS011;25906;43.536;26.068;2023-04-03T05:08:58;13.15;;;7.63;;
40198;SDS011;25906;43.536;26.068;2023-04-03T05:11:44;17.70;;;10.38;;
40198;SDS011;25906;43.536;26.068;2023-04-03T05:14:30;5.60;;;2.80;;
40198;SDS011;25906;43.536;26.068;2023-04-03T05:17:15;4.35;;;2.78;;
40198;SDS011;25906;43.536;26.068;2023-04-03T05:20:01;3.92;;;2.67;;
40198;SDS011;25906;43.536;26.068;2023-04-03T05:22:47;5.45;;;2.63;;
40198;SDS011;25906;43.536;26.068;2023-04-03T05:25:32;4.13;;;2.65;;
40198;SDS011;25906;43.536;26.068;2023-04-03T05:28:18;3.13;;;2.60;;
40198;SDS011;25906;43.536;26.068;2023-04-03T05:31:03;3.63;;;2.22;;
40198;SDS011;25906;43.536;26.068;2023-04-03T05:33:49;2.88;;;2.25;;
40198;SDS011;25906;43.536;26.068;2023-04-03T05:36:34;2.08;;;1.80;;
40198;SDS011;25906;43.536;26.068;2023-04-03T05:39:20;2.30;;;1.85;;
40198;SDS011;25906;43.536;26.068;2023-04-03T05:42:06;3.10;;;2.47;;
40198;SDS011;25906;43.536;26.068;2023-04-03T05:44:52;3.33;;;2.20;;
40198;SDS011;25906;43.536;26.068;2023-04-03T05:47:37;3.00;;;2.45;;
40198;SDS011;25906;43.536;26.068;2023-04-03T05:50:23;5.50;;;2.10;;
40198;SDS011;25906;43.536;26.068;2023-04-03T05:53:42;2.47;;;2.00;;
40198;SDS011;25906;43.536;26.068;2023-04-03T05:56:24;2.13;;;1.85;;
40198;SDS011;25906;43.536;26.068;2023-04-03T05:59:10;2.45;;;2.25;;
40198;SDS011;25906;43.536;26.068;2023-04-03T06:01:56;4.85;;;3.00;;
40198;SDS011;25906;43.536;26.068;2023-04-03T06:04:41;4.57;;;2.50;;
40198;SDS011;25906;43.536;26.068;2023-04-03T06:07:26;4.25;;;2.63;;
40198;SDS011;25906;43.536;26.068;2023-04-03T06:10:13;3.47;;;2.58;;
40198;SDS011;25906;43.536;26.068;2023-04-03T06:12:58;5.20;;;2.40;;
40198;SDS011;25906;43.536;26.068;2023-04-03T06:15:44;4.53;;;2.67;;
40198;SDS011;25906;43.536;26.068;2023-04-03T06:18:29;4.38;;;2.25;;
40198;SDS011;25906;43.536;26.068;2023-04-03T06:21:15;4.18;;;2.40;;
40198;SDS011;25906;43.536;26.068;2023-04-03T06:24:00;4.63;;;2.40;;
40198;SDS011;25906;43.536;26.068;2023-04-03T06:26:46;3.55;;;2.17;;
40198;SDS011;25906;43.536;26.068;2023-04-03T06:29:31;4.55;;;3.30;;
40198;SDS011;25906;43.536;26.068;2023-04-03T06:32:16;6.03;;;3.38;;
40198;SDS011;25906;43.536;26.068;2023-04-03T06:35:02;3.50;;;2.35;;
40198;SDS011;25906;43.536;26.068;2023-04-03T06:37:48;2.30;;;1.83;;
40198;SDS011;25906;43.536;26.068;2023-04-03T06:40:33;2.30;;;1.95;;
40198;SDS011;25906;43.536;26.068;2023-04-03T06:43:19;2.72;;;2.35;;
40198;SDS011;25906;43.536;26.068;2023-04-03T06:46:04;2.78;;;2.28;;
40198;SDS011;25906;43.536;26.068;2023-04-03T06:48:50;4.50;;;2.60;;
40198;SDS011;25906;43.536;26.068;2023-04-03T06:54:22;5.60;;;2.72;;
40198;SDS011;25906;43.536;26.068;2023-04-03T06:57:07;3.88;;;2.17;;
40198;SDS011;25906;43.536;26.068;2023-04-03T06:59:53;7.20;;;3.38;;
40198;SDS011;25906;43.536;26.068;2023-04-03T07:02:38;5.75;;;2.22;;
40198;SDS011;25906;43.536;26.068;2023-04-03T07:05:24;4.05;;;2.05;;
40198;SDS011;25906;43.536;26.068;2023-04-03T07:08:10;6.65;;;2.30;;
40198;SDS011;25906;43.536;26.068;2023-04-03T07:10:55;2.85;;;2.28;;
40198;SDS011;25906;43.536;26.068;2023-04-03T07:13:41;4.47;;;2.30;;
40198;SDS011;25906;43.536;26.068;2023-04-03T07:16:26;3.17;;;2.22;;
40198;SDS011;25906;43.536;26.068;2023-04-03T07:19:12;2.13;;;1.77;;
40198;SDS011;25906;43.536;26.068;2023-04-03T07:21:57;2.30;;;1.77;;
40198;SDS011;25906;43.536;26.068;2023-04-03T07:24:43;2.03;;;1.80;;
40198;SDS011;25906;43.536;26.068;2023-04-03T07:27:28;1.90;;;1.75;;
40198;SDS011;25906;43.536;26.068;2023-04-03T07:30:14;2.50;;;1.70;;
40198;SDS011;25906;43.536;26.068;2023-04-03T07:33:00;1.90;;;1.70;;
40198;SDS011;25906;43.536;26.068;2023-04-03T07:35:45;4.50;;;1.60;;
40198;SDS011;25906;43.536;26.068;2023-04-03T07:38:31;2.03;;;1.63;;
40198;SDS011;25906;43.536;26.068;2023-04-03T07:41:17;9.35;;;2.22;;
40198;SDS011;25906;43.536;26.068;2023-04-03T07:44:05;2.13;;;1.70;;
40198;SDS011;25906;43.536;26.068;2023-04-03T07:46:50;2.53;;;1.95;;
40198;SDS011;25906;43.536;26.068;2023-04-03T07:49:36;2.28;;;1.67;;
40198;SDS011;25906;43.536;26.068;2023-04-03T07:52:24;4.82;;;1.85;;
40198;SDS011;25906;43.536;26.068;2023-04-03T07:57:55;1.98;;;1.40;;
40198;SDS011;25906;43.536;26.068;2023-04-03T08:00:41;1.35;;;1.23;;
40198;SDS011;25906;43.536;26.068;2023-04-03T08:03:27;1.58;;;1.38;;
40198;SDS011;25906;43.536;26.068;2023-04-03T08:06:12;2.33;;;1.40;;
40198;SDS011;25906;43.536;26.068;2023-04-03T08:09:00;1.33;;;1.23;;
40198;SDS011;25906;43.536;26.068;2023-04-03T08:11:45;1.83;;;1.52;;
40198;SDS011;25906;43.536;26.068;2023-04-03T08:14:33;1.52;;;1.35;;
40198;SDS011;25906;43.536;26.068;2023-04-03T08:17:19;1.30;;;1.20;;
40198;SDS011;25906;43.536;26.068;2023-04-03T08:20:05;1.83;;;1.48;;
40198;SDS011;25906;43.536;26.068;2023-04-03T08:22:52;3.80;;;1.83;;
40198;SDS011;25906;43.536;26.068;2023-04-03T08:25:38;1.95;;;1.10;;
40198;SDS011;25906;43.536;26.068;2023-04-03T08:28:27;4.72;;;2.08;;
40198;SDS011;25906;43.536;26.068;2023-04-03T08:31:14;3.00;;;1.88;;
40198;SDS011;25906;43.536;26.068;2023-04-03T08:34:03;2.33;;;1.20;;
40198;SDS011;25906;43.536;26.068;2023-04-03T08:36:48;0.95;;;0.95;;
40198;SDS011;25906;43.536;26.068;2023-04-03T08:39:34;2.08;;;1.33;;
40198;SDS011;25906;43.536;26.068;2023-04-03T08:45:44;1.40;;;0.93;;
40198;SDS011;25906;43.536;26.068;2023-04-03T08:48:36;0.95;;;0.95;;
40198;SDS011;25906;43.536;26.068;2023-04-03T08:51:25;1.50;;;0.98;;
40198;SDS011;25906;43.536;26.068;2023-04-03T08:54:16;2.10;;;0.93;;
40198;SDS011;25906;43.536;26.068;2023-04-03T08:57:09;3.42;;;1.20;;
40198;SDS011;25906;43.536;26.068;2023-04-03T09:00:01;1.42;;;1.05;;
40198;SDS011;25906;43.536;26.068;2023-04-03T09:02:51;1.40;;;0.90;;
40198;SDS011;25906;43.536;26.068;2023-04-03T09:11:56;5.05;;;0.90;;
40198;SDS011;25906;43.536;26.068;2023-04-03T09:18:21;1.48;;;0.88;;
40198;SDS011;25906;43.536;26.068;2023-04-03T09:21:17;1.00;;;0.88;;
40198;SDS011;25906;43.536;26.068;2023-04-03T09:24:10;1.10;;;0.95;;
40198;SDS011;25906;43.536;26.068;2023-04-03T09:27:00;2.10;;;0.98;;
40198;SDS011;25906;43.536;26.068;2023-04-03T09:29:48;2.42;;;0.93;;
40198;SDS011;25906;43.536;26.068;2023-04-03T09:32:38;2.15;;;1.00;;
40198;SDS011;25906;43.536;26.068;2023-04-03T09:35:28;1.25;;;0.70;;
40198;SDS011;25906;43.536;26.068;2023-04-03T09:38:20;6.53;;;1.35;;
40198;SDS011;25906;43.536;26.068;2023-04-03T09:41:13;1.42;;;0.80;;
40198;SDS011;25906;43.536;26.068;2023-04-03T09:44:00;0.85;;;0.85;;
40198;SDS011;25906;43.536;26.068;2023-04-03T09:46:46;2.22;;;0.93;;
40198;SDS011;25906;43.536;26.068;2023-04-03T09:49:32;0.95;;;0.93;;
40198;SDS011;25906;43.536;26.068;2023-04-03T09:52:18;1.33;;;1.23;;
40198;SDS011;25906;43.536;26.068;2023-04-03T09:55:06;0.80;;;0.80;;
40198;SDS011;25906;43.536;26.068;2023-04-03T09:57:54;3.65;;;0.98;;
40198;SDS011;25906;43.536;26.068;2023-04-03T10:00:41;1.30;;;0.90;;
40198;SDS011;25906;43.536;26.068;2023-04-03T10:03:31;1.00;;;0.90;;
40198;SDS011;25906;43.536;26.068;2023-04-03T10:06:22;0.90;;;0.90;;
40198;SDS011;25906;43.536;26.068;2023-04-03T10:12:08;0.82;;;0.80;;
40198;SDS011;25906;43.536;26.068;2023-04-03T10:15:00;0.82;;;0.80;;
40198;SDS011;25906;43.536;26.068;2023-04-03T10:17:50;1.05;;;0.95;;
40198;SDS011;25906;43.536;26.068;2023-04-03T10:20:39;1.35;;;0.80;;
40198;SDS011;25906;43.536;26.068;2023-04-03T10:23:30;0.82;;;0.60;;
40198;SDS011;25906;43.536;26.068;2023-04-03T10:29:44;0.90;;;0.90;;
40198;SDS011;25906;43.536;26.068;2023-04-03T10:44:20;2.53;;;0.85;;
40198;SDS011;25906;43.536;26.068;2023-04-03T10:50:44;0.95;;;0.68;;
40198;SDS011;25906;43.536;26.068;2023-04-03T10:53:38;1.25;;;0.60;;
40198;SDS011;25906;43.536;26.068;2023-04-03T10:56:38;1.75;;;0.70;;
40198;SDS011;25906;43.536;26.068;2023-04-03T10:59:33;2.15;;;1.10;;
40198;SDS011;25906;43.536;26.068;2023-04-03T11:02:33;1.65;;;0.70;;
40198;SDS011;25906;43.536;26.068;2023-04-03T11:11:42;0.60;;;0.60;;
40198;SDS011;25906;43.536;26.068;2023-04-03T11:14:33;0.82;;;0.60;;
40198;SDS011;25906;43.536;26.068;2023-04-03T11:17:54;0.40;;;0.40;;
40198;SDS011;25906;43.536;26.068;2023-04-03T11:23:57;0.98;;;0.50;;
40198;SDS011;25906;43.536;26.068;2023-04-03T11:26:44;0.50;;;0.50;;
40198;SDS011;25906;43.536;26.068;2023-04-03T11:29:37;0.50;;;0.50;;
40198;SDS011;25906;43.536;26.068;2023-04-03T11:32:39;1.85;;;0.80;;
40198;SDS011;25906;43.536;26.068;2023-04-03T11:35:50;1.00;;;0.52;;
40198;SDS011;25906;43.536;26.068;2023-04-03T11:38:41;0.95;;;0.57;;
40198;SDS011;25906;43.536;26.068;2023-04-03T11:41:31;0.57;;;0.57;;
40198;SDS011;25906;43.536;26.068;2023-04-03T11:53:30;0.80;;;0.80;;
40198;SDS011;25906;43.536;26.068;2023-04-03T11:59:16;1.75;;;0.80;;
40198;SDS011;25906;43.536;26.068;2023-04-03T12:02:33;0.70;;;0.70;;
40198;SDS011;25906;43.536;26.068;2023-04-03T12:05:24;0.70;;;0.70;;
40198;SDS011;25906;43.536;26.068;2023-04-03T12:11:23;1.15;;;0.80;;
40198;SDS011;25906;43.536;26.068;2023-04-03T12:14:16;1.13;;;0.93;;
40198;SDS011;25906;43.536;26.068;2023-04-03T12:17:02;1.80;;;1.00;;
40198;SDS011;25906;43.536;26.068;2023-04-03T12:19:47;0.70;;;0.70;;
40198;SDS011;25906;43.536;26.068;2023-04-03T12:22:33;0.90;;;0.90;;
40198;SDS011;25906;43.536;26.068;2023-04-03T12:28:38;3.33;;;1.02;;
40198;SDS011;25906;43.536;26.068;2023-04-03T12:31:25;0.80;;;0.80;;
40198;SDS011;25906;43.536;26.068;2023-04-03T12:50:28;1.25;;;1.00;;
40198;SDS011;25906;43.536;26.068;2023-04-03T12:53:22;1.63;;;1.00;;
40198;SDS011;25906;43.536;26.068;2023-04-03T12:56:24;2.80;;;1.10;;
40198;SDS011;25906;43.536;26.068;2023-04-03T13:02:30;0.77;;;0.73;;
40198;SDS011;25906;43.536;26.068;2023-04-03T13:05:18;1.27;;;0.93;;
40198;SDS011;25906;43.536;26.068;2023-04-03T13:08:07;0.90;;;0.90;;
40198;SDS011;25906;43.536;26.068;2023-04-03T13:11:06;1.17;;;0.75;;
40198;SDS011;25906;43.536;26.068;2023-04-03T13:14:00;0.85;;;0.85;;
40198;SDS011;25906;43.536;26.068;2023-04-03T13:17:02;0.82;;;0.82;;
40198;SDS011;25906;43.536;26.068;2023-04-03T13:19:51;1.00;;;0.90;;
40198;SDS011;25906;43.536;26.068;2023-04-03T13:22:39;4.00;;;0.93;;
40198;SDS011;25906;43.536;26.068;2023-04-03T13:25:31;0.80;;;0.80;;
40198;SDS011;25906;43.536;26.068;2023-04-03T13:28:20;1.42;;;1.20;;
40198;SDS011;25906;43.536;26.068;2023-04-03T13:36:57;1.88;;;1.73;;
40198;SDS011;25906;43.536;26.068;2023-04-03T13:39:44;2.15;;;1.45;;
40198;SDS011;25906;43.536;26.068;2023-04-03T13:42:30;1.80;;;1.60;;
40198;SDS011;25906;43.536;26.068;2023-04-03T13:45:23;5.47;;;1.38;;
40198;SDS011;25906;43.536;26.068;2023-04-03T13:48:21;2.38;;;1.45;;
40198;SDS011;25906;43.536;26.068;2023-04-03T13:53:57;2.80;;;1.63;;
40198;SDS011;25906;43.536;26.068;2023-04-03T13:56:45;1.20;;;1.10;;
40198;SDS011;25906;43.536;26.068;2023-04-03T13:59:32;1.10;;;1.00;;
40198;SDS011;25906;43.536;26.068;2023-04-03T14:02:26;2.60;;;1.13;;
40198;SDS011;25906;43.536;26.068;2023-04-03T14:08:03;1.27;;;1.10;;
40198;SDS011;25906;43.536;26.068;2023-04-03T14:10:48;1.52;;;1.00;;
40198;SDS011;25906;43.536;26.068;2023-04-03T14:13:35;1.25;;;1.10;;
40198;SDS011;25906;43.536;26.068;2023-04-03T14:16:22;2.40;;;1.00;;
40198;SDS011;25906;43.536;26.068;2023-04-03T14:19:25;1.42;;;1.17;;
40198;SDS011;25906;43.536;26.068;2023-04-03T14:22:15;1.77;;;1.40;;
40198;SDS011;25906;43.536;26.068;2023-04-03T14:25:02;1.75;;;1.60;;
40198;SDS011;25906;43.536;26.068;2023-04-03T14:27:49;1.52;;;1.10;;
40198;SDS011;25906;43.536;26.068;2023-04-03T14:30:36;1.65;;;1.48;;
40198;SDS011;25906;43.536;26.068;2023-04-03T14:33:22;2.03;;;1.60;;
40198;SDS011;25906;43.536;26.068;2023-04-03T14:36:26;6.57;;;1.95;;
40198;SDS011;25906;43.536;26.068;2023-04-03T14:39:17;2.67;;;2.20;;
40198;SDS011;25906;43.536;26.068;2023-04-03T14:42:03;2.40;;;1.70;;
40198;SDS011;25906;43.536;26.068;2023-04-03T14:44:49;1.92;;;1.38;;
40198;SDS011;25906;43.536;26.068;2023-04-03T14:47:36;3.05;;;2.60;;
40198;SDS011;25906;43.536;26.068;2023-04-03T14:50:27;1.58;;;1.42;;
40198;SDS011;25906;43.536;26.068;2023-04-03T14:53:12;3.92;;;1.60;;
40198;SDS011;25906;43.536;26.068;2023-04-03T14:55:59;2.00;;;1.70;;
40198;SDS011;25906;43.536;26.068;2023-04-03T14:58:45;2.15;;;1.55;;
40198;SDS011;25906;43.536;26.068;2023-04-03T15:01:34;1.80;;;1.55;;
40198;SDS011;25906;43.536;26.068;2023-04-03T15:04:20;2.53;;;1.58;;
40198;SDS011;25906;43.536;26.068;2023-04-03T15:07:07;2.65;;;1.92;;
40198;SDS011;25906;43.536;26.068;2023-04-03T15:09:53;2.90;;;1.83;;
40198;SDS011;25906;43.536;26.068;2023-04-03T15:12:41;2.15;;;1.90;;
40198;SDS011;25906;43.536;26.068;2023-04-03T15:15:28;3.30;;;2.10;;
40198;SDS011;25906;43.536;26.068;2023-04-03T15:18:19;2.45;;;1.70;;
40198;SDS011;25906;43.536;26.068;2023-04-03T15:21:06;2.15;;;1.77;;
40198;SDS011;25906;43.536;26.068;2023-04-03T15:23:52;2.22;;;1.73;;
40198;SDS011;25906;43.536;26.068;2023-04-03T15:26:37;1.70;;;1.60;;
40198;SDS011;25906;43.536;26.068;2023-04-03T15:29:23;3.08;;;1.80;;
40198;SDS011;25906;43.536;26.068;2023-04-03T15:32:09;2.38;;;1.70;;
40198;SDS011;25906;43.536;26.068;2023-04-03T15:34:55;3.83;;;1.88;;
40198;SDS011;25906;43.536;26.068;2023-04-03T15:37:41;2.80;;;2.20;;
40198;SDS011;25906;43.536;26.068;2023-04-03T15:40:26;2.20;;;1.30;;
40198;SDS011;25906;43.536;26.068;2023-04-03T15:43:12;2.45;;;1.40;;
40198;SDS011;25906;43.536;26.068;2023-04-03T15:45:59;1.52;;;1.30;;
40198;SDS011;25906;43.536;26.068;2023-04-03T15:48:44;1.40;;;1.15;;
40198;SDS011;25906;43.536;26.068;2023-04-03T15:51:30;1.63;;;1.30;;
40198;SDS011;25906;43.536;26.068;2023-04-03T15:54:16;3.22;;;1.30;;
40198;SDS011;25906;43.536;26.068;2023-04-03T15:57:02;2.08;;;1.25;;
40198;SDS011;25906;43.536;26.068;2023-04-03T15:59:47;1.17;;;1.02;;
40198;SDS011;25906;43.536;26.068;2023-04-03T16:02:33;1.65;;;1.30;;
40198;SDS011;25906;43.536;26.068;2023-04-03T16:05:18;1.75;;;1.27;;
40198;SDS011;25906;43.536;26.068;2023-04-03T16:08:04;1.58;;;1.15;;
40198;SDS011;25906;43.536;26.068;2023-04-03T16:10:52;1.40;;;1.20;;
40198;SDS011;25906;43.536;26.068;2023-04-03T16:13:38;4.80;;;1.40;;
40198;SDS011;25906;43.536;26.068;2023-04-03T16:16:23;2.00;;;1.45;;
40198;SDS011;25906;43.536;26.068;2023-04-03T16:19:12;1.95;;;1.50;;
40198;SDS011;25906;43.536;26.068;2023-04-03T16:21:58;3.70;;;2.15;;
40198;SDS011;25906;43.536;26.068;2023-04-03T16:24:43;5.22;;;2.88;;
40198;SDS011;25906;43.536;26.068;2023-04-03T16:27:29;3.20;;;2.60;;
40198;SDS011;25906;43.536;26.068;2023-04-03T16:30:15;3.67;;;2.70;;
40198;SDS011;25906;43.536;26.068;2023-04-03T16:33:01;5.20;;;3.40;;
40198;SDS011;25906;43.536;26.068;2023-04-03T16:35:47;8.05;;;3.60;;
40198;SDS011;25906;43.536;26.068;2023-04-03T16:38:33;6.00;;;4.32;;
40198;SDS011;25906;43.536;26.068;2023-04-03T16:41:20;5.80;;;3.90;;
40198;SDS011;25906;43.536;26.068;2023-04-03T16:44:06;7.85;;;4.65;;
40198;SDS011;25906;43.536;26.068;2023-04-03T16:46:52;10.00;;;4.68;;
40198;SDS011;25906;43.536;26.068;2023-04-03T16:49:37;7.22;;;4.63;;
40198;SDS011;25906;43.536;26.068;2023-04-03T16:52:23;6.63;;;5.28;;
40198;SDS011;25906;43.536;26.068;2023-04-03T16:55:09;7.90;;;5.57;;
40198;SDS011;25906;43.536;26.068;2023-04-03T16:57:54;10.32;;;6.47;;
40198;SDS011;25906;43.536;26.068;2023-04-03T17:03:25;10.57;;;6.65;;
40198;SDS011;25906;43.536;26.068;2023-04-03T17:06:15;9.30;;;6.55;;
40198;SDS011;25906;43.536;26.068;2023-04-03T17:09:02;11.73;;;7.25;;
40198;SDS011;25906;43.536;26.068;2023-04-03T17:11:48;12.70;;;8.00;;
40198;SDS011;25906;43.536;26.068;2023-04-03T17:14:33;12.00;;;7.30;;
40198;SDS011;25906;43.536;26.068;2023-04-03T17:17:20;11.77;;;7.50;;
40198;SDS011;25906;43.536;26.068;2023-04-03T17:20:07;10.15;;;6.85;;
40198;SDS011;25906;43.536;26.068;2023-04-03T17:22:54;10.10;;;7.03;;
40198;SDS011;25906;43.536;26.068;2023-04-03T17:25:39;9.38;;;6.70;;
40198;SDS011;25906;43.536;26.068;2023-04-03T17:28:25;11.02;;;6.93;;
40198;SDS011;25906;43.536;26.068;2023-04-03T17:31:12;9.85;;;6.55;;
40198;SDS011;25906;43.536;26.068;2023-04-03T17:33:58;11.07;;;6.85;;
40198;SDS011;25906;43.536;26.068;2023-04-03T17:36:45;13.25;;;6.65;;
40198;SDS011;25906;43.536;26.068;2023-04-03T17:42:17;9.70;;;6.10;;
40198;SDS011;25906;43.536;26.068;2023-04-03T17:45:02;8.82;;;5.63;;
40198;SDS011;25906;43.536;26.068;2023-04-03T17:47:50;8.05;;;4.95;;
40198;SDS011;25906;43.536;26.068;2023-04-03T17:50:36;7.28;;;5.07;;
40198;SDS011;25906;43.536;26.068;2023-04-03T17:53:22;7.82;;;5.03;;
40198;SDS011;25906;43.536;26.068;2023-04-03T17:56:08;7.78;;;5.50;;
40198;SDS011;25906;43.536;26.068;2023-04-03T17:58:58;10.48;;;5.30;;
40198;SDS011;25906;43.536;26.068;2023-04-03T18:01:44;9.45;;;5.47;;
40198;SDS011;25906;43.536;26.068;2023-04-03T18:04:30;8.55;;;6.00;;
40198;SDS011;25906;43.536;26.068;2023-04-03T18:07:16;8.93;;;5.90;;
40198;SDS011;25906;43.536;26.068;2023-04-03T18:10:02;9.45;;;6.43;;
40198;SDS011;25906;43.536;26.068;2023-04-03T18:12:52;10.23;;;6.38;;
40198;SDS011;25906;43.536;26.068;2023-04-03T18:15:38;8.60;;;6.15;;
40198;SDS011;25906;43.536;26.068;2023-04-03T18:18:29;14.00;;;6.80;;
40198;SDS011;25906;43.536;26.068;2023-04-03T18:21:15;8.15;;;6.05;;
40198;SDS011;25906;43.536;26.068;2023-04-03T18:24:01;9.25;;;6.22;;
40198;SDS011;25906;43.536;26.068;2023-04-03T18:26:55;9.43;;;6.32;;
40198;SDS011;25906;43.536;26.068;2023-04-03T18:29:49;9.73;;;6.43;;